Meraklis — 8PAJ2 — position and weather

sailwx.info

Track history (hours):
 
Tides and Currents Weather Stations Pressure Air Temp Water Temp Dewpoint Dewpoint Depression Visibility Wind Speed Wind Dir Waves Ship Positions

Meraklis

Last reported at 2017-Nov-18 19:00 UTC. Time now 2017-Nov-18 19:16 UTC.
Position N 44°44' E 037°48'.

Length 190 m; draft 6.1 m.

Type: Cargo ship. MMSI: 314009000.

Date/timePositionNaut miles runAvg speedWind from/ knotsBaromVisibWave heightAir tempDewpointWater temp
2017-Nov-18 19:00N 44°44' E 037°48'0 0.0
2017-Nov-18 18:30N 44°44' E 037°48'0 0.0
2017-Nov-18 18:00N 44°44' E 037°48'0 0.0
2017-Nov-18 17:30N 44°44' E 037°48'0 0.0
2017-Nov-18 17:00N 44°44' E 037°48'0 0.0
2017-Nov-18 16:30N 44°44' E 037°48'0 0.0
2017-Nov-18 16:00N 44°44' E 037°48'0 0.0
2017-Nov-18 15:30N 44°44' E 037°48'0 0.0
2017-Nov-18 15:00N 44°44' E 037°48'0 0.0
2017-Nov-18 14:30N 44°44' E 037°48'0 0.0
2017-Nov-18 14:00N 44°44' E 037°48'0 0.0
2017-Nov-18 13:30N 44°44' E 037°48'0 0.0
2017-Nov-18 13:00N 44°44' E 037°48'0 0.0
2017-Nov-18 12:30N 44°44' E 037°48'0 0.0
2017-Nov-18 12:00N 44°44' E 037°48'0 0.0
2017-Nov-18 11:30N 44°44' E 037°48'0 0.0
2017-Nov-18 11:00N 44°44' E 037°48'0 0.0
2017-Nov-18 10:30N 44°44' E 037°48'0 0.0
2017-Nov-18 10:00N 44°44' E 037°48'0 0.0
2017-Nov-18 09:30N 44°44' E 037°48'0 0.0
2017-Nov-18 09:00N 44°44' E 037°48'0 0.0
2017-Nov-18 08:30N 44°44' E 037°48'0 0.0
2017-Nov-18 08:00N 44°44' E 037°48'0 0.0
2017-Nov-18 07:30N 44°44' E 037°48'0 0.0
2017-Nov-18 07:00N 44°44' E 037°48'0 0.0
2017-Nov-18 06:30N 44°44' E 037°48'0 0.0
2017-Nov-18 06:00N 44°44' E 037°48'0 0.0
2017-Nov-18 05:30N 44°44' E 037°48'0 0.0
2017-Nov-18 05:00N 44°44' E 037°48'0 0.0
2017-Nov-18 04:30N 44°44' E 037°48'0 0.0
2017-Nov-18 04:00N 44°44' E 037°48'0 0.0
2017-Nov-18 03:30N 44°44' E 037°48'0 0.0
2017-Nov-18 03:00N 44°44' E 037°48'0 0.0
2017-Nov-18 02:30N 44°44' E 037°48'0 0.0
2017-Nov-18 02:00N 44°44' E 037°48'0 0.0
2017-Nov-18 01:30N 44°44' E 037°48'0 0.0
2017-Nov-18 01:00N 44°44' E 037°48'0 0.0
2017-Nov-18 00:30N 44°44' E 037°48'0 0.0
2017-Nov-18 00:00N 44°44' E 037°48'0 0.0
2017-Nov-17 23:30N 44°44' E 037°48'0 0.0
2017-Nov-17 23:00N 44°44' E 037°48'0 0.0
2017-Nov-17 22:30N 44°44' E 037°48'0 0.0
2017-Nov-17 22:00N 44°44' E 037°48'0 0.0
2017-Nov-17 21:30N 44°44' E 037°48'0 0.0
2017-Nov-17 21:00N 44°44' E 037°48'0 0.0
2017-Nov-17 20:30N 44°44' E 037°48'0 0.4
2017-Nov-17 20:00N 44°44' E 037°48'2 3.4
2017-Nov-17 19:30N 44°42' E 037°49'3 6.6
2017-Nov-17 19:00N 44°39' E 037°51'3 5.0
2017-Nov-17 18:30N 44°36' E 037°50'4 8.4
2017-Nov-17 18:00N 44°33' E 037°47'1011.9
2017-Nov-17 17:09N 44°35' E 038°01'2339.2
2017-Nov-17 16:35N 44°25' E 037°32'1 9.8
2017-Nov-17 16:30N 44°25' E 037°31'610.0
2017-Nov-17 15:53N 44°22' E 037°24'42312.7
2017-Nov-16 06:36N 40°59' E 028°59'2 8.0
2017-Nov-16 06:22N 40°57' E 028°59'29010.3
2017-Nov-15 02:15N 37°44' E 024°20'1213.3
2017-Nov-15 01:24N 37°38' E 024°08'513.1
2017-Nov-15 01:00N 37°37' E 024°01'713.0
2017-Nov-15 00:27N 37°37' E 023°52'613.0
2017-Nov-15 00:00N 37°39' E 023°45'612.2
2017-Nov-14 23:30N 37°44' E 023°40'611.7
2017-Nov-14 23:00N 37°49' E 023°37'4 8.4
2017-Nov-14 22:30N 37°51' E 023°33'1 1.1
2017-Nov-14 22:00N 37°51' E 023°32'0 0.1
2017-Nov-14 21:30N 37°51' E 023°32'0 0.1
2017-Nov-14 20:59N 37°51' E 023°32'0 0.1
2017-Nov-14 20:29N 37°52' E 023°32'0 0.2
2017-Nov-14 19:59N 37°51' E 023°32'0 0.1
2017-Nov-14 19:29N 37°51' E 023°32'0 0.1
2017-Nov-14 18:59N 37°52' E 023°32'0 0.2
2017-Nov-14 18:29N 37°51' E 023°32'0 0.1
2017-Nov-14 17:59N 37°51' E 023°32'0 0.2
2017-Nov-14 17:29N 37°52' E 023°32'0 0.2
2017-Nov-14 16:59N 37°52' E 023°32'0 0.1
2017-Nov-14 16:29N 37°52' E 023°32'0 0.1
2017-Nov-14 15:59N 37°52' E 023°32'0 0.1
2017-Nov-14 15:29N 37°52' E 023°32'0 0.1
2017-Nov-14 14:59N 37°51' E 023°32'0 0.0
2017-Nov-14 14:29N 37°51' E 023°32'0 0.0
2017-Nov-14 13:59N 37°51' E 023°32'0 0.0
2017-Nov-14 13:29N 37°51' E 023°32'0 0.1
2017-Nov-14 12:59N 37°51' E 023°32'0 0.1
2017-Nov-14 12:29N 37°51' E 023°32'0 0.0
2017-Nov-14 11:59N 37°51' E 023°32'0 0.0
2017-Nov-14 11:29N 37°51' E 023°32'0 0.0
2017-Nov-14 10:59N 37°51' E 023°32'0 0.1
2017-Nov-14 10:29N 37°51' E 023°32'0 0.0
2017-Nov-14 08:39N 37°51' E 023°32'0 0.0
2017-Nov-14 08:29N 37°51' E 023°32'0 0.1
2017-Nov-14 07:56N 37°51' E 023°32'0 0.0
2017-Nov-14 07:29N 37°51' E 023°32'0 0.0
2017-Nov-14 06:59N 37°51' E 023°32'0 0.0
2017-Nov-14 06:29N 37°51' E 023°32'0 0.0
2017-Nov-14 05:56N 37°51' E 023°32'0 0.0
2017-Nov-14 05:29N 37°51' E 023°32'0 0.1
2017-Nov-14 04:59N 37°51' E 023°32'0 0.1
2017-Nov-14 04:29N 37°51' E 023°32'0 0.1
2017-Nov-14 03:59N 37°51' E 023°32'0 0.0
2017-Nov-14 03:29N 37°51' E 023°32'0 0.0
2017-Nov-14 02:59N 37°51' E 023°32'0 0.0
2017-Nov-14 02:29N 37°51' E 023°32'0 0.1
2017-Nov-14 01:59N 37°51' E 023°32'0 0.1
2017-Nov-14 01:29N 37°51' E 023°32'0 0.0
2017-Nov-14 00:59N 37°51' E 023°32'0 0.0
2017-Nov-14 00:29N 37°51' E 023°32'0 0.0
2017-Nov-13 23:59N 37°51' E 023°32'0 0.1
2017-Nov-13 23:29N 37°51' E 023°32'0 0.0
2017-Nov-13 22:59N 37°51' E 023°32'0 0.1
2017-Nov-13 22:29N 37°51' E 023°32'0 0.1
2017-Nov-13 21:59N 37°51' E 023°32'0 0.0
2017-Nov-13 01:58N 37°51' E 023°32'0 0.3
2017-Nov-13 01:28N 37°51' E 023°32'0 0.2
2017-Nov-13 00:58N 37°51' E 023°32'0 0.1
2017-Nov-13 00:28N 37°51' E 023°32'0 0.8
2017-Nov-12 23:58N 37°52' E 023°32'0 0.2
2017-Nov-12 23:28N 37°52' E 023°32'0 0.2
2017-Nov-12 22:58N 37°52' E 023°32'0 0.2
2017-Nov-12 22:25N 37°52' E 023°32'0 0.1
2017-Nov-12 21:58N 37°52' E 023°32'0 0.2
2017-Nov-12 21:28N 37°52' E 023°32'0 0.1
2017-Nov-12 20:58N 37°52' E 023°32'0 0.1
2017-Nov-12 20:28N 37°52' E 023°32'0 0.1
2017-Nov-12 19:58N 37°52' E 023°32'0 0.0
2017-Nov-12 19:28N 37°52' E 023°32'0 0.0
2017-Nov-12 18:58N 37°52' E 023°32'0 0.0
2017-Nov-12 18:28N 37°52' E 023°32'0 0.0
2017-Nov-12 17:58N 37°52' E 023°32'0 0.1
2017-Nov-12 17:28N 37°52' E 023°32'0 0.1
2017-Nov-12 16:58N 37°52' E 023°32'0 0.0
2017-Nov-12 16:28N 37°52' E 023°32'0 0.0
2017-Nov-12 15:58N 37°52' E 023°32'0 0.0
2017-Nov-12 15:28N 37°52' E 023°32'0 0.0
2017-Nov-12 14:58N 37°52' E 023°32'0 0.0
2017-Nov-12 14:28N 37°52' E 023°32'0 0.0
2017-Nov-12 13:58N 37°52' E 023°32'0 0.0
2017-Nov-12 13:28N 37°52' E 023°32'0 0.0
2017-Nov-12 12:58N 37°52' E 023°32'0 0.0
2017-Nov-12 12:28N 37°52' E 023°32'0 0.0
2017-Nov-12 11:52N 37°52' E 023°32'0 0.0
2017-Nov-12 11:28N 37°52' E 023°32'0 0.0
2017-Nov-12 10:58N 37°52' E 023°32'0 0.0
2017-Nov-12 10:28N 37°52' E 023°32'0 0.0
2017-Nov-12 09:58N 37°52' E 023°32'0 0.1
2017-Nov-12 09:28N 37°52' E 023°32'0 0.1
2017-Nov-12 08:58N 37°52' E 023°32'0 0.1
2017-Nov-12 08:28N 37°52' E 023°32'0 0.0
2017-Nov-12 07:58N 37°52' E 023°32'0 0.1
2017-Nov-12 07:30N 37°52' E 023°32'0 0.0
2017-Nov-12 07:00N 37°52' E 023°32'0 0.0
2017-Nov-12 06:30N 37°52' E 023°32'0 0.1
2017-Nov-12 06:00N 37°52' E 023°32'0 0.0
2017-Nov-12 05:30N 37°52' E 023°32'0 0.8
2017-Nov-12 05:00N 37°51' E 023°32'2 4.4
2017-Nov-12 04:30N 37°51' E 023°35'3 6.2
2017-Nov-12 04:01N 37°51' E 023°39'5 9.2
2017-Nov-12 03:30N 37°47' E 023°41'5 9.2
2017-Nov-12 03:00N 37°42' E 023°44'  
2017-Nov-08 23:27N 44°21' E 013°09'511.8
2017-Nov-08 23:00N 44°26' E 013°06'611.7
2017-Nov-08 22:30N 44°32' E 013°04'611.7
2017-Nov-08 22:00N 44°37' E 013°01'611.7
2017-Nov-08 21:30N 44°43' E 012°59'611.7
2017-Nov-08 21:00N 44°48' E 012°55'611.5
2017-Nov-08 20:30N 44°53' E 012°51'611.8
2017-Nov-08 20:00N 44°58' E 012°46'611.7
2017-Nov-08 19:30N 45°03' E 012°44'  
Track history (hours):
 
Tides and Currents Weather Stations Pressure Air Temp Water Temp Dewpoint Dewpoint Depression Visibility Wind Speed Wind Dir Waves Ship Positions

Meraklis

Last reported at 2017-Nov-18 19:00 UTC. Time now 2017-Nov-18 19:17 UTC.
Position N 44°44' E 037°48'.

Length 190 m; draft 6.1 m.

Type: Cargo ship. MMSI: 314009000.

Date/timePositionNaut miles runAvg speedWind from/ knotsBaromVisibWave heightAir tempDewpointWater temp
2017-Nov-18 19:00N 44°44' E 037°48'0 0.0
2017-Nov-18 18:30N 44°44' E 037°48'0 0.0
2017-Nov-18 18:00N 44°44' E 037°48'0 0.0
2017-Nov-18 17:30N 44°44' E 037°48'0 0.0
2017-Nov-18 17:00N 44°44' E 037°48'0 0.0
2017-Nov-18 16:30N 44°44' E 037°48'0 0.0
2017-Nov-18 16:00N 44°44' E 037°48'0 0.0
2017-Nov-18 15:30N 44°44' E 037°48'0 0.0
2017-Nov-18 15:00N 44°44' E 037°48'0 0.0
2017-Nov-18 14:30N 44°44' E 037°48'0 0.0
2017-Nov-18 14:00N 44°44' E 037°48'0 0.0
2017-Nov-18 13:30N 44°44' E 037°48'0 0.0
2017-Nov-18 13:00N 44°44' E 037°48'0 0.0
2017-Nov-18 12:30N 44°44' E 037°48'0 0.0
2017-Nov-18 12:00N 44°44' E 037°48'0 0.0
2017-Nov-18 11:30N 44°44' E 037°48'0 0.0
2017-Nov-18 11:00N 44°44' E 037°48'0 0.0
2017-Nov-18 10:30N 44°44' E 037°48'0 0.0
2017-Nov-18 10:00N 44°44' E 037°48'0 0.0
2017-Nov-18 09:30N 44°44' E 037°48'0 0.0
2017-Nov-18 09:00N 44°44' E 037°48'0 0.0
2017-Nov-18 08:30N 44°44' E 037°48'0 0.0
2017-Nov-18 08:00N 44°44' E 037°48'0 0.0
2017-Nov-18 07:30N 44°44' E 037°48'0 0.0
2017-Nov-18 07:00N 44°44' E 037°48'0 0.0
2017-Nov-18 06:30N 44°44' E 037°48'0 0.0
2017-Nov-18 06:00N 44°44' E 037°48'0 0.0
2017-Nov-18 05:30N 44°44' E 037°48'0 0.0
2017-Nov-18 05:00N 44°44' E 037°48'0 0.0
2017-Nov-18 04:30N 44°44' E 037°48'0 0.0
2017-Nov-18 04:00N 44°44' E 037°48'0 0.0
2017-Nov-18 03:30N 44°44' E 037°48'0 0.0
2017-Nov-18 03:00N 44°44' E 037°48'0 0.0
2017-Nov-18 02:30N 44°44' E 037°48'0 0.0
2017-Nov-18 02:00N 44°44' E 037°48'0 0.0
2017-Nov-18 01:30N 44°44' E 037°48'0 0.0
2017-Nov-18 01:00N 44°44' E 037°48'0 0.0
2017-Nov-18 00:30N 44°44' E 037°48'0 0.0
2017-Nov-18 00:00N 44°44' E 037°48'0 0.0
2017-Nov-17 23:30N 44°44' E 037°48'0 0.0
2017-Nov-17 23:00N 44°44' E 037°48'0 0.0
2017-Nov-17 22:30N 44°44' E 037°48'0 0.0
2017-Nov-17 22:00N 44°44' E 037°48'0 0.0
2017-Nov-17 21:30N 44°44' E 037°48'0 0.0
2017-Nov-17 21:00N 44°44' E 037°48'0 0.0
2017-Nov-17 20:30N 44°44' E 037°48'0 0.4
2017-Nov-17 20:00N 44°44' E 037°48'2 3.4
2017-Nov-17 19:30N 44°42' E 037°49'3 6.6
2017-Nov-17 19:00N 44°39' E 037°51'3 5.0
2017-Nov-17 18:30N 44°36' E 037°50'4 8.4
2017-Nov-17 18:00N 44°33' E 037°47'1011.9
2017-Nov-17 17:09N 44°35' E 038°01'2339.2
2017-Nov-17 16:35N 44°25' E 037°32'1 9.8
2017-Nov-17 16:30N 44°25' E 037°31'610.0
2017-Nov-17 15:53N 44°22' E 037°24'42312.7
2017-Nov-16 06:36N 40°59' E 028°59'2 8.0
2017-Nov-16 06:22N 40°57' E 028°59'29010.3
2017-Nov-15 02:15N 37°44' E 024°20'1213.3
2017-Nov-15 01:24N 37°38' E 024°08'513.1
2017-Nov-15 01:00N 37°37' E 024°01'713.0
2017-Nov-15 00:27N 37°37' E 023°52'613.0
2017-Nov-15 00:00N 37°39' E 023°45'612.2
2017-Nov-14 23:30N 37°44' E 023°40'611.7
2017-Nov-14 23:00N 37°49' E 023°37'4 8.4
2017-Nov-14 22:30N 37°51' E 023°33'1 1.1
2017-Nov-14 22:00N 37°51' E 023°32'0 0.1
2017-Nov-14 21:30N 37°51' E 023°32'0 0.1
2017-Nov-14 20:59N 37°51' E 023°32'0 0.1
2017-Nov-14 20:29N 37°52' E 023°32'0 0.2
2017-Nov-14 19:59N 37°51' E 023°32'0 0.1
2017-Nov-14 19:29N 37°51' E 023°32'0 0.1
2017-Nov-14 18:59N 37°52' E 023°32'0 0.2
2017-Nov-14 18:29N 37°51' E 023°32'0 0.1
2017-Nov-14 17:59N 37°51' E 023°32'0 0.2
2017-Nov-14 17:29N 37°52' E 023°32'0 0.2
2017-Nov-14 16:59N 37°52' E 023°32'0 0.1
2017-Nov-14 16:29N 37°52' E 023°32'0 0.1
2017-Nov-14 15:59N 37°52' E 023°32'0 0.1
2017-Nov-14 15:29N 37°52' E 023°32'0 0.1
2017-Nov-14 14:59N 37°51' E 023°32'0 0.0
2017-Nov-14 14:29N 37°51' E 023°32'0 0.0
2017-Nov-14 13:59N 37°51' E 023°32'0 0.0
2017-Nov-14 13:29N 37°51' E 023°32'0 0.1
2017-Nov-14 12:59N 37°51' E 023°32'0 0.1
2017-Nov-14 12:29N 37°51' E 023°32'0 0.0
2017-Nov-14 11:59N 37°51' E 023°32'0 0.0
2017-Nov-14 11:29N 37°51' E 023°32'0 0.0
2017-Nov-14 10:59N 37°51' E 023°32'0 0.1
2017-Nov-14 10:29N 37°51' E 023°32'0 0.0
2017-Nov-14 08:39N 37°51' E 023°32'0 0.0
2017-Nov-14 08:29N 37°51' E 023°32'0 0.1
2017-Nov-14 07:56N 37°51' E 023°32'0 0.0
2017-Nov-14 07:29N 37°51' E 023°32'0 0.0
2017-Nov-14 06:59N 37°51' E 023°32'0 0.0
2017-Nov-14 06:29N 37°51' E 023°32'0 0.0
2017-Nov-14 05:56N 37°51' E 023°32'0 0.0
2017-Nov-14 05:29N 37°51' E 023°32'0 0.1
2017-Nov-14 04:59N 37°51' E 023°32'0 0.1
2017-Nov-14 04:29N 37°51' E 023°32'0 0.1
2017-Nov-14 03:59N 37°51' E 023°32'0 0.0
2017-Nov-14 03:29N 37°51' E 023°32'0 0.0
2017-Nov-14 02:59N 37°51' E 023°32'0 0.0
2017-Nov-14 02:29N 37°51' E 023°32'0 0.1
2017-Nov-14 01:59N 37°51' E 023°32'0 0.1
2017-Nov-14 01:29N 37°51' E 023°32'0 0.0
2017-Nov-14 00:59N 37°51' E 023°32'0 0.0
2017-Nov-14 00:29N 37°51' E 023°32'0 0.0
2017-Nov-13 23:59N 37°51' E 023°32'0 0.1
2017-Nov-13 23:29N 37°51' E 023°32'0 0.0
2017-Nov-13 22:59N 37°51' E 023°32'0 0.1
2017-Nov-13 22:29N 37°51' E 023°32'0 0.1
2017-Nov-13 21:59N 37°51' E 023°32'0 0.0
2017-Nov-13 01:58N 37°51' E 023°32'0 0.3
2017-Nov-13 01:28N 37°51' E 023°32'0 0.2
2017-Nov-13 00:58N 37°51' E 023°32'0 0.1
2017-Nov-13 00:28N 37°51' E 023°32'0 0.8
2017-Nov-12 23:58N 37°52' E 023°32'0 0.2
2017-Nov-12 23:28N 37°52' E 023°32'0 0.2
2017-Nov-12 22:58N 37°52' E 023°32'0 0.2
2017-Nov-12 22:25N 37°52' E 023°32'0 0.1
2017-Nov-12 21:58N 37°52' E 023°32'0 0.2
2017-Nov-12 21:28N 37°52' E 023°32'0 0.1
2017-Nov-12 20:58N 37°52' E 023°32'0 0.1
2017-Nov-12 20:28N 37°52' E 023°32'0 0.1
2017-Nov-12 19:58N 37°52' E 023°32'0 0.0
2017-Nov-12 19:28N 37°52' E 023°32'0 0.0
2017-Nov-12 18:58N 37°52' E 023°32'0 0.0
2017-Nov-12 18:28N 37°52' E 023°32'0 0.0
2017-Nov-12 17:58N 37°52' E 023°32'0 0.1
2017-Nov-12 17:28N 37°52' E 023°32'0 0.1
2017-Nov-12 16:58N 37°52' E 023°32'0 0.0
2017-Nov-12 16:28N 37°52' E 023°32'0 0.0
2017-Nov-12 15:58N 37°52' E 023°32'0 0.0
2017-Nov-12 15:28N 37°52' E 023°32'0 0.0
2017-Nov-12 14:58N 37°52' E 023°32'0 0.0
2017-Nov-12 14:28N 37°52' E 023°32'0 0.0
2017-Nov-12 13:58N 37°52' E 023°32'0 0.0
2017-Nov-12 13:28N 37°52' E 023°32'0 0.0
2017-Nov-12 12:58N 37°52' E 023°32'0 0.0
2017-Nov-12 12:28N 37°52' E 023°32'0 0.0
2017-Nov-12 11:52N 37°52' E 023°32'0 0.0
2017-Nov-12 11:28N 37°52' E 023°32'0 0.0
2017-Nov-12 10:58N 37°52' E 023°32'0 0.0
2017-Nov-12 10:28N 37°52' E 023°32'0 0.0
2017-Nov-12 09:58N 37°52' E 023°32'0 0.1
2017-Nov-12 09:28N 37°52' E 023°32'0 0.1
2017-Nov-12 08:58N 37°52' E 023°32'0 0.1
2017-Nov-12 08:28N 37°52' E 023°32'0 0.0
2017-Nov-12 07:58N 37°52' E 023°32'0 0.1
2017-Nov-12 07:30N 37°52' E 023°32'0 0.0
2017-Nov-12 07:00N 37°52' E 023°32'0 0.0
2017-Nov-12 06:30N 37°52' E 023°32'0 0.1
2017-Nov-12 06:00N 37°52' E 023°32'0 0.0
2017-Nov-12 05:30N 37°52' E 023°32'0 0.8
2017-Nov-12 05:00N 37°51' E 023°32'2 4.4
2017-Nov-12 04:30N 37°51' E 023°35'3 6.2
2017-Nov-12 04:01N 37°51' E 023°39'5 9.2
2017-Nov-12 03:30N 37°47' E 023°41'5 9.2
2017-Nov-12 03:00N 37°42' E 023°44'  
2017-Nov-08 23:27N 44°21' E 013°09'511.8
2017-Nov-08 23:00N 44°26' E 013°06'611.7
2017-Nov-08 22:30N 44°32' E 013°04'611.7
2017-Nov-08 22:00N 44°37' E 013°01'611.7
2017-Nov-08 21:30N 44°43' E 012°59'611.7
2017-Nov-08 21:00N 44°48' E 012°55'611.5
2017-Nov-08 20:30N 44°53' E 012°51'611.8
2017-Nov-08 20:00N 44°58' E 012°46'611.7
2017-Nov-08 19:30N 45°03' E 012°44'  

Dump ship's entire track history